sensor_id;sensor_type;location;lat;lon;timestamp;P1;durP1;ratioP1;P2;durP2;ratioP2
16839;SDS011;8536;52.150;11.572;2022-08-30T00:02:04;0.45;;;0.45;;
16839;SDS011;8536;52.150;11.572;2022-08-30T00:04:31;0.60;;;0.55;;
16839;SDS011;8536;52.150;11.572;2022-08-30T00:07:00;0.73;;;0.70;;
16839;SDS011;8536;52.150;11.572;2022-08-30T00:09:30;0.57;;;0.50;;
16839;SDS011;8536;52.150;11.572;2022-08-30T00:11:57;1.25;;;0.57;;
16839;SDS011;8536;52.150;11.572;2022-08-30T00:14:23;0.50;;;0.50;;
16839;SDS011;8536;52.150;11.572;2022-08-30T00:16:52;0.40;;;0.40;;
16839;SDS011;8536;52.150;11.572;2022-08-30T00:19:20;0.93;;;0.60;;
16839;SDS011;8536;52.150;11.572;2022-08-30T00:21:47;1.25;;;0.70;;
16839;SDS011;8536;52.150;11.572;2022-08-30T00:24:13;0.75;;;0.60;;
16839;SDS011;8536;52.150;11.572;2022-08-30T00:26:40;1.52;;;0.70;;
16839;SDS011;8536;52.150;11.572;2022-08-30T00:29:06;0.50;;;0.50;;
16839;SDS011;8536;52.150;11.572;2022-08-30T00:31:33;0.68;;;0.68;;
16839;SDS011;8536;52.150;11.572;2022-08-30T00:34:00;1.27;;;0.75;;
16839;SDS011;8536;52.150;11.572;2022-08-30T00:36:27;0.55;;;0.43;;
16839;SDS011;8536;52.150;11.572;2022-08-30T00:38:54;0.60;;;0.60;;
16839;SDS011;8536;52.150;11.572;2022-08-30T00:41:20;0.93;;;0.60;;
16839;SDS011;8536;52.150;11.572;2022-08-30T00:43:47;0.65;;;0.65;;
16839;SDS011;8536;52.150;11.572;2022-08-30T00:46:14;0.60;;;0.60;;
16839;SDS011;8536;52.150;11.572;2022-08-30T00:48:42;0.77;;;0.60;;
16839;SDS011;8536;52.150;11.572;2022-08-30T00:51:11;0.85;;;0.80;;
16839;SDS011;8536;52.150;11.572;2022-08-30T00:53:41;1.17;;;0.90;;
16839;SDS011;8536;52.150;11.572;2022-08-30T00:56:10;0.90;;;0.60;;
16839;SDS011;8536;52.150;11.572;2022-08-30T00:58:39;1.85;;;0.65;;
16839;SDS011;8536;52.150;11.572;2022-08-30T01:01:10;0.77;;;0.68;;
16839;SDS011;8536;52.150;11.572;2022-08-30T01:03:37;1.67;;;0.80;;
16839;SDS011;8536;52.150;11.572;2022-08-30T01:06:05;0.80;;;0.80;;
16839;SDS011;8536;52.150;11.572;2022-08-30T01:08:33;0.90;;;0.70;;
16839;SDS011;8536;52.150;11.572;2022-08-30T01:11:00;1.27;;;0.80;;
16839;SDS011;8536;52.150;11.572;2022-08-30T01:13:28;0.70;;;0.70;;
16839;SDS011;8536;52.150;11.572;2022-08-30T01:15:55;1.50;;;1.00;;
16839;SDS011;8536;52.150;11.572;2022-08-30T01:18:22;1.20;;;0.80;;
16839;SDS011;8536;52.150;11.572;2022-08-30T01:23:43;0.75;;;0.70;;
16839;SDS011;8536;52.150;11.572;2022-08-30T01:26:13;1.10;;;0.77;;
16839;SDS011;8536;52.150;11.572;2022-08-30T01:28:41;1.27;;;0.90;;
16839;SDS011;8536;52.150;11.572;2022-08-30T01:31:08;0.80;;;0.80;;
16839;SDS011;8536;52.150;11.572;2022-08-30T01:33:35;1.08;;;0.80;;
16839;SDS011;8536;52.150;11.572;2022-08-30T01:36:06;0.95;;;0.90;;
16839;SDS011;8536;52.150;11.572;2022-08-30T01:38:45;0.85;;;0.85;;
16839;SDS011;8536;52.150;11.572;2022-08-30T01:41:21;1.23;;;0.95;;
16839;SDS011;8536;52.150;11.572;2022-08-30T01:43:50;2.50;;;1.00;;
16839;SDS011;8536;52.150;11.572;2022-08-30T01:46:18;1.27;;;0.90;;
16839;SDS011;8536;52.150;11.572;2022-08-30T01:48:46;0.80;;;0.80;;
16839;SDS011;8536;52.150;11.572;2022-08-30T01:51:19;2.47;;;1.15;;
16839;SDS011;8536;52.150;11.572;2022-08-30T01:53:47;1.02;;;0.98;;
16839;SDS011;8536;52.150;11.572;2022-08-30T01:56:14;1.33;;;1.20;;
16839;SDS011;8536;52.150;11.572;2022-08-30T01:58:41;1.33;;;1.23;;
16839;SDS011;8536;52.150;11.572;2022-08-30T02:01:10;1.15;;;1.02;;
16839;SDS011;8536;52.150;11.572;2022-08-30T02:03:40;1.30;;;1.20;;
16839;SDS011;8536;52.150;11.572;2022-08-30T02:06:09;1.33;;;1.20;;
16839;SDS011;8536;52.150;11.572;2022-08-30T02:08:37;1.65;;;1.20;;
16839;SDS011;8536;52.150;11.572;2022-08-30T02:11:08;1.77;;;1.40;;
16839;SDS011;8536;52.150;11.572;2022-08-30T02:13:36;1.55;;;1.30;;
16839;SDS011;8536;52.150;11.572;2022-08-30T02:16:04;1.55;;;1.45;;
16839;SDS011;8536;52.150;11.572;2022-08-30T02:18:33;1.40;;;1.30;;
16839;SDS011;8536;52.150;11.572;2022-08-30T02:21:00;1.20;;;1.10;;
16839;SDS011;8536;52.150;11.572;2022-08-30T02:23:27;1.40;;;1.30;;
16839;SDS011;8536;52.150;11.572;2022-08-30T02:25:54;1.88;;;1.40;;
16839;SDS011;8536;52.150;11.572;2022-08-30T02:28:20;1.85;;;1.45;;
16839;SDS011;8536;52.150;11.572;2022-08-30T02:30:49;1.25;;;1.17;;
16839;SDS011;8536;52.150;11.572;2022-08-30T02:33:17;1.55;;;1.40;;
16839;SDS011;8536;52.150;11.572;2022-08-30T02:35:44;2.20;;;1.23;;
16839;SDS011;8536;52.150;11.572;2022-08-30T02:38:10;1.50;;;1.20;;
16839;SDS011;8536;52.150;11.572;2022-08-30T02:40:37;1.77;;;1.52;;
16839;SDS011;8536;52.150;11.572;2022-08-30T02:43:04;1.60;;;1.50;;
16839;SDS011;8536;52.150;11.572;2022-08-30T02:45:31;1.55;;;1.45;;
16839;SDS011;8536;52.150;11.572;2022-08-30T02:47:57;1.67;;;1.58;;
16839;SDS011;8536;52.150;11.572;2022-08-30T02:50:24;1.50;;;1.40;;
16839;SDS011;8536;52.150;11.572;2022-08-30T02:52:51;1.77;;;1.67;;
16839;SDS011;8536;52.150;11.572;2022-08-30T02:55:20;1.55;;;1.40;;
16839;SDS011;8536;52.150;11.572;2022-08-30T02:57:47;1.63;;;1.52;;
16839;SDS011;8536;52.150;11.572;2022-08-30T03:00:15;1.60;;;1.50;;
16839;SDS011;8536;52.150;11.572;2022-08-30T03:02:43;1.80;;;1.65;;
16839;SDS011;8536;52.150;11.572;2022-08-30T03:05:14;1.50;;;1.40;;
16839;SDS011;8536;52.150;11.572;2022-08-30T03:07:41;2.40;;;2.03;;
16839;SDS011;8536;52.150;11.572;2022-08-30T03:10:09;1.85;;;1.75;;
16839;SDS011;8536;52.150;11.572;2022-08-30T03:12:36;2.28;;;2.05;;
16839;SDS011;8536;52.150;11.572;2022-08-30T03:15:07;1.77;;;1.67;;
16839;SDS011;8536;52.150;11.572;2022-08-30T03:17:35;2.38;;;2.17;;
16839;SDS011;8536;52.150;11.572;2022-08-30T03:20:02;1.95;;;1.80;;
16839;SDS011;8536;52.150;11.572;2022-08-30T03:22:29;2.42;;;2.20;;
16839;SDS011;8536;52.150;11.572;2022-08-30T03:24:56;1.92;;;1.83;;
16839;SDS011;8536;52.150;11.572;2022-08-30T03:27:25;2.35;;;2.15;;
16839;SDS011;8536;52.150;11.572;2022-08-30T03:29:53;1.98;;;1.88;;
16839;SDS011;8536;52.150;11.572;2022-08-30T03:32:20;2.17;;;1.98;;
16839;SDS011;8536;52.150;11.572;2022-08-30T03:34:47;2.35;;;2.15;;
16839;SDS011;8536;52.150;11.572;2022-08-30T03:37:13;2.45;;;2.25;;
16839;SDS011;8536;52.150;11.572;2022-08-30T03:39:40;2.40;;;2.20;;
16839;SDS011;8536;52.150;11.572;2022-08-30T03:42:06;2.50;;;2.30;;
16839;SDS011;8536;52.150;11.572;2022-08-30T03:44:34;2.85;;;2.53;;
16839;SDS011;8536;52.150;11.572;2022-08-30T03:47:01;2.35;;;2.17;;
16839;SDS011;8536;52.150;11.572;2022-08-30T03:49:28;2.88;;;2.67;;
16839;SDS011;8536;52.150;11.572;2022-08-30T03:51:55;3.05;;;2.55;;
16839;SDS011;8536;52.150;11.572;2022-08-30T03:54:22;3.85;;;2.92;;
16839;SDS011;8536;52.150;11.572;2022-08-30T03:56:50;2.85;;;2.65;;
16839;SDS011;8536;52.150;11.572;2022-08-30T03:59:16;13.85;;;5.47;;
16839;SDS011;8536;52.150;11.572;2022-08-30T04:01:43;6.88;;;2.90;;
16839;SDS011;8536;52.150;11.572;2022-08-30T04:04:11;2.85;;;2.42;;
16839;SDS011;8536;52.150;11.572;2022-08-30T04:06:41;3.28;;;2.97;;
16839;SDS011;8536;52.150;11.572;2022-08-30T04:09:08;3.42;;;3.13;;
16839;SDS011;8536;52.150;11.572;2022-08-30T04:11:35;2.90;;;2.53;;
16839;SDS011;8536;52.150;11.572;2022-08-30T04:14:01;3.35;;;3.05;;
16839;SDS011;8536;52.150;11.572;2022-08-30T04:16:28;3.17;;;2.72;;
16839;SDS011;8536;52.150;11.572;2022-08-30T04:18:55;2.60;;;2.40;;
16839;SDS011;8536;52.150;11.572;2022-08-30T04:21:21;2.75;;;2.55;;
16839;SDS011;8536;52.150;11.572;2022-08-30T04:23:48;2.88;;;2.42;;
16839;SDS011;8536;52.150;11.572;2022-08-30T04:26:15;4.03;;;2.78;;
16839;SDS011;8536;52.150;11.572;2022-08-30T04:28:42;6.47;;;3.20;;
16839;SDS011;8536;52.150;11.572;2022-08-30T04:31:09;3.22;;;2.88;;
16839;SDS011;8536;52.150;11.572;2022-08-30T04:33:40;3.78;;;3.05;;
16839;SDS011;8536;52.150;11.572;2022-08-30T04:36:07;2.97;;;2.67;;
16839;SDS011;8536;52.150;11.572;2022-08-30T04:38:35;3.33;;;3.03;;
16839;SDS011;8536;52.150;11.572;2022-08-30T04:41:07;3.88;;;3.58;;
16839;SDS011;8536;52.150;11.572;2022-08-30T04:43:36;3.50;;;3.20;;
16839;SDS011;8536;52.150;11.572;2022-08-30T04:46:05;3.33;;;3.03;;
16839;SDS011;8536;52.150;11.572;2022-08-30T04:48:32;3.30;;;3.00;;
16839;SDS011;8536;52.150;11.572;2022-08-30T04:51:02;5.13;;;3.30;;
16839;SDS011;8536;52.150;11.572;2022-08-30T04:53:31;3.33;;;3.03;;
16839;SDS011;8536;52.150;11.572;2022-08-30T04:55:58;3.28;;;2.97;;
16839;SDS011;8536;52.150;11.572;2022-08-30T04:58:24;3.83;;;3.53;;
16839;SDS011;8536;52.150;11.572;2022-08-30T05:00:51;4.38;;;3.42;;
16839;SDS011;8536;52.150;11.572;2022-08-30T05:03:18;4.10;;;3.70;;
16839;SDS011;8536;52.150;11.572;2022-08-30T05:05:48;3.60;;;3.30;;
16839;SDS011;8536;52.150;11.572;2022-08-30T05:08:16;4.10;;;3.70;;
16839;SDS011;8536;52.150;11.572;2022-08-30T05:10:50;3.72;;;3.33;;
16839;SDS011;8536;52.150;11.572;2022-08-30T05:13:17;3.92;;;3.53;;
16839;SDS011;8536;52.150;11.572;2022-08-30T05:16:00;3.83;;;3.47;;
16839;SDS011;8536;52.150;11.572;2022-08-30T05:18:27;4.05;;;3.65;;
16839;SDS011;8536;52.150;11.572;2022-08-30T05:21:08;4.03;;;3.47;;
16839;SDS011;8536;52.150;11.572;2022-08-30T05:23:37;4.05;;;3.70;;
16839;SDS011;8536;52.150;11.572;2022-08-30T05:26:05;4.32;;;3.70;;
16839;SDS011;8536;52.150;11.572;2022-08-30T05:28:34;3.42;;;3.13;;
16839;SDS011;8536;52.150;11.572;2022-08-30T05:31:01;4.88;;;3.42;;
16839;SDS011;8536;52.150;11.572;2022-08-30T05:33:28;4.00;;;3.60;;
16839;SDS011;8536;52.150;11.572;2022-08-30T05:36:04;3.65;;;3.33;;
16839;SDS011;8536;52.150;11.572;2022-08-30T05:38:32;6.10;;;3.20;;
16839;SDS011;8536;52.150;11.572;2022-08-30T05:40:58;4.28;;;3.70;;
16839;SDS011;8536;52.150;11.572;2022-08-30T05:43:30;3.50;;;3.20;;
16839;SDS011;8536;52.150;11.572;2022-08-30T05:46:01;3.92;;;3.25;;
16839;SDS011;8536;52.150;11.572;2022-08-30T05:48:30;4.65;;;3.05;;
16839;SDS011;8536;52.150;11.572;2022-08-30T05:51:02;3.05;;;2.80;;
16839;SDS011;8536;52.150;11.572;2022-08-30T05:53:31;3.30;;;3.00;;
16839;SDS011;8536;52.150;11.572;2022-08-30T05:55:59;3.10;;;2.80;;
16839;SDS011;8536;52.150;11.572;2022-08-30T05:58:30;2.90;;;2.70;;
16839;SDS011;8536;52.150;11.572;2022-08-30T06:00:57;2.97;;;2.70;;
16839;SDS011;8536;52.150;11.572;2022-08-30T06:03:25;3.33;;;3.03;;
16839;SDS011;8536;52.150;11.572;2022-08-30T06:05:52;2.83;;;2.60;;
16839;SDS011;8536;52.150;11.572;2022-08-30T06:08:20;4.05;;;2.80;;
16839;SDS011;8536;52.150;11.572;2022-08-30T06:10:47;3.78;;;3.22;;
16839;SDS011;8536;52.150;11.572;2022-08-30T06:13:14;3.30;;;3.00;;
16839;SDS011;8536;52.150;11.572;2022-08-30T06:15:40;2.67;;;2.47;;
16839;SDS011;8536;52.150;11.572;2022-08-30T06:18:11;3.20;;;2.83;;
16839;SDS011;8536;52.150;11.572;2022-08-30T06:20:39;3.45;;;3.03;;
16839;SDS011;8536;52.150;11.572;2022-08-30T06:23:10;4.18;;;3.08;;
16839;SDS011;8536;52.150;11.572;2022-08-30T06:25:37;3.78;;;2.78;;
16839;SDS011;8536;52.150;11.572;2022-08-30T06:28:07;3.88;;;3.08;;
16839;SDS011;8536;52.150;11.572;2022-08-30T06:30:34;3.58;;;3.22;;
16839;SDS011;8536;52.150;11.572;2022-08-30T06:33:00;3.50;;;3.17;;
16839;SDS011;8536;52.150;11.572;2022-08-30T06:35:27;4.78;;;3.42;;
16839;SDS011;8536;52.150;11.572;2022-08-30T06:37:57;3.45;;;3.03;;
16839;SDS011;8536;52.150;11.572;2022-08-30T06:40:24;6.25;;;4.13;;
16839;SDS011;8536;52.150;11.572;2022-08-30T06:42:51;3.75;;;3.38;;
16839;SDS011;8536;52.150;11.572;2022-08-30T06:45:19;4.88;;;3.75;;
16839;SDS011;8536;52.150;11.572;2022-08-30T06:47:46;5.40;;;3.53;;
16839;SDS011;8536;52.150;11.572;2022-08-30T06:50:15;3.92;;;3.20;;
16839;SDS011;8536;52.150;11.572;2022-08-30T06:52:43;3.10;;;2.80;;
16839;SDS011;8536;52.150;11.572;2022-08-30T06:55:13;4.05;;;3.05;;
16839;SDS011;8536;52.150;11.572;2022-08-30T06:57:41;3.65;;;2.90;;
16839;SDS011;8536;52.150;11.572;2022-08-30T07:00:08;4.53;;;3.28;;
16839;SDS011;8536;52.150;11.572;2022-08-30T07:02:37;3.42;;;2.88;;
16839;SDS011;8536;52.150;11.572;2022-08-30T07:05:04;2.53;;;2.33;;
16839;SDS011;8536;52.150;11.572;2022-08-30T07:07:31;3.78;;;2.65;;
16839;SDS011;8536;52.150;11.572;2022-08-30T07:09:58;3.75;;;2.65;;
16839;SDS011;8536;52.150;11.572;2022-08-30T07:12:27;3.60;;;2.40;;
16839;SDS011;8536;52.150;11.572;2022-08-30T07:14:54;3.53;;;2.72;;
16839;SDS011;8536;52.150;11.572;2022-08-30T07:17:20;2.70;;;2.50;;
16839;SDS011;8536;52.150;11.572;2022-08-30T07:20:06;3.08;;;2.58;;
16839;SDS011;8536;52.150;11.572;2022-08-30T07:22:33;2.53;;;2.33;;
16839;SDS011;8536;52.150;11.572;2022-08-30T07:25:00;2.83;;;2.28;;
16839;SDS011;8536;52.150;11.572;2022-08-30T07:27:27;2.53;;;2.13;;
16839;SDS011;8536;52.150;11.572;2022-08-30T07:29:53;2.40;;;2.08;;
16839;SDS011;8536;52.150;11.572;2022-08-30T07:32:21;2.38;;;2.03;;
16839;SDS011;8536;52.150;11.572;2022-08-30T07:34:47;1.95;;;1.77;;
16839;SDS011;8536;52.150;11.572;2022-08-30T07:37:16;1.58;;;1.48;;
16839;SDS011;8536;52.150;11.572;2022-08-30T07:39:44;1.80;;;1.70;;
16839;SDS011;8536;52.150;11.572;2022-08-30T07:42:13;1.50;;;1.40;;
16839;SDS011;8536;52.150;11.572;2022-08-30T07:44:40;1.58;;;1.48;;
16839;SDS011;8536;52.150;11.572;2022-08-30T07:47:07;2.25;;;1.33;;
16839;SDS011;8536;52.150;11.572;2022-08-30T07:49:35;1.75;;;1.55;;
16839;SDS011;8536;52.150;11.572;2022-08-30T07:52:02;3.38;;;2.15;;
16839;SDS011;8536;52.150;11.572;2022-08-30T07:54:29;2.05;;;1.75;;
16839;SDS011;8536;52.150;11.572;2022-08-30T07:56:56;1.85;;;1.63;;
16839;SDS011;8536;52.150;11.572;2022-08-30T07:59:23;2.08;;;1.35;;
16839;SDS011;8536;52.150;11.572;2022-08-30T08:01:50;1.92;;;1.60;;
16839;SDS011;8536;52.150;11.572;2022-08-30T08:04:17;2.97;;;1.40;;
16839;SDS011;8536;52.150;11.572;2022-08-30T08:06:44;1.50;;;1.40;;
16839;SDS011;8536;52.150;11.572;2022-08-30T08:09:11;1.58;;;1.40;;
16839;SDS011;8536;52.150;11.572;2022-08-30T08:11:39;1.50;;;1.40;;
16839;SDS011;8536;52.150;11.572;2022-08-30T08:14:20;1.50;;;1.35;;
16839;SDS011;8536;52.150;11.572;2022-08-30T08:17:02;1.70;;;1.60;;
16839;SDS011;8536;52.150;11.572;2022-08-30T08:19:44;1.65;;;1.30;;
16839;SDS011;8536;52.150;11.572;2022-08-30T08:22:24;1.67;;;1.25;;
16839;SDS011;8536;52.150;11.572;2022-08-30T08:25:04;1.40;;;1.30;;
16839;SDS011;8536;52.150;11.572;2022-08-30T08:27:31;1.15;;;1.00;;
16839;SDS011;8536;52.150;11.572;2022-08-30T08:29:58;1.55;;;0.93;;
16839;SDS011;8536;52.150;11.572;2022-08-30T08:32:25;1.73;;;1.05;;
16839;SDS011;8536;52.150;11.572;2022-08-30T08:34:52;1.20;;;1.10;;
16839;SDS011;8536;52.150;11.572;2022-08-30T08:37:19;1.50;;;1.40;;
16839;SDS011;8536;52.150;11.572;2022-08-30T08:39:52;1.42;;;1.30;;
16839;SDS011;8536;52.150;11.572;2022-08-30T08:47:56;1.50;;;1.15;;
16839;SDS011;8536;52.150;11.572;2022-08-30T08:50:29;1.30;;;1.02;;
16839;SDS011;8536;52.150;11.572;2022-08-30T08:56:12;1.05;;;0.98;;
16839;SDS011;8536;52.150;11.572;2022-08-30T08:58:46;1.02;;;0.95;;
16839;SDS011;8536;52.150;11.572;2022-08-30T09:01:15;1.70;;;1.20;;
16839;SDS011;8536;52.150;11.572;2022-08-30T09:03:43;1.30;;;0.88;;
16839;SDS011;8536;52.150;11.572;2022-08-30T09:09:07;4.30;;;1.25;;
16839;SDS011;8536;52.150;11.572;2022-08-30T09:11:34;1.33;;;1.20;;
16839;SDS011;8536;52.150;11.572;2022-08-30T09:14:04;1.60;;;1.30;;
16839;SDS011;8536;52.150;11.572;2022-08-30T09:19:23;2.30;;;1.20;;
16839;SDS011;8536;52.150;11.572;2022-08-30T09:21:59;1.00;;;0.95;;
16839;SDS011;8536;52.150;11.572;2022-08-30T09:24:37;0.98;;;0.98;;
16839;SDS011;8536;52.150;11.572;2022-08-30T09:27:17;0.70;;;0.65;;
16839;SDS011;8536;52.150;11.572;2022-08-30T09:29:50;1.55;;;1.08;;
16839;SDS011;8536;52.150;11.572;2022-08-30T09:32:26;1.65;;;0.90;;
16839;SDS011;8536;52.150;11.572;2022-08-30T09:34:57;1.73;;;1.00;;
16839;SDS011;8536;52.150;11.572;2022-08-30T09:37:27;0.90;;;0.90;;
16839;SDS011;8536;52.150;11.572;2022-08-30T09:39:56;0.75;;;0.73;;
16839;SDS011;8536;52.150;11.572;2022-08-30T09:42:24;1.20;;;1.05;;
16839;SDS011;8536;52.150;11.572;2022-08-30T09:44:52;1.10;;;1.00;;
16839;SDS011;8536;52.150;11.572;2022-08-30T09:47:42;1.10;;;0.88;;
16839;SDS011;8536;52.150;11.572;2022-08-30T09:50:10;1.15;;;0.98;;
16839;SDS011;8536;52.150;11.572;2022-08-30T09:53:04;1.05;;;1.00;;
16839;SDS011;8536;52.150;11.572;2022-08-30T09:58:54;0.80;;;0.80;;
16839;SDS011;8536;52.150;11.572;2022-08-30T10:02:03;0.88;;;0.88;;
16839;SDS011;8536;52.150;11.572;2022-08-30T10:04:36;1.13;;;0.80;;
16839;SDS011;8536;52.150;11.572;2022-08-30T10:07:12;1.27;;;0.90;;
16839;SDS011;8536;52.150;11.572;2022-08-30T10:09:48;1.08;;;0.80;;
16839;SDS011;8536;52.150;11.572;2022-08-30T10:12:23;0.82;;;0.82;;
16839;SDS011;8536;52.150;11.572;2022-08-30T10:15:05;0.80;;;0.80;;
16839;SDS011;8536;52.150;11.572;2022-08-30T10:17:44;1.00;;;0.80;;
16839;SDS011;8536;52.150;11.572;2022-08-30T10:20:26;1.17;;;1.10;;
16839;SDS011;8536;52.150;11.572;2022-08-30T10:25:34;1.55;;;1.13;;
16839;SDS011;8536;52.150;11.572;2022-08-30T10:28:12;0.90;;;0.90;;
16839;SDS011;8536;52.150;11.572;2022-08-30T10:30:46;1.00;;;0.90;;
16839;SDS011;8536;52.150;11.572;2022-08-30T10:33:29;1.30;;;0.80;;
16839;SDS011;8536;52.150;11.572;2022-08-30T10:36:02;1.17;;;1.05;;
16839;SDS011;8536;52.150;11.572;2022-08-30T10:38:37;1.15;;;1.08;;
16839;SDS011;8536;52.150;11.572;2022-08-30T10:50:09;0.88;;;0.88;;
16839;SDS011;8536;52.150;11.572;2022-08-30T10:53:02;1.02;;;0.98;;
16839;SDS011;8536;52.150;11.572;2022-08-30T10:55:35;1.27;;;0.90;;
16839;SDS011;8536;52.150;11.572;2022-08-30T10:58:15;1.70;;;0.80;;
16839;SDS011;8536;52.150;11.572;2022-08-30T11:00:49;1.50;;;1.00;;
16839;SDS011;8536;52.150;11.572;2022-08-30T11:06:02;0.75;;;0.75;;
16839;SDS011;8536;52.150;11.572;2022-08-30T11:14:23;2.35;;;0.82;;
16839;SDS011;8536;52.150;11.572;2022-08-30T11:16:51;0.70;;;0.65;;
16839;SDS011;8536;52.150;11.572;2022-08-30T11:19:23;1.10;;;0.80;;
16839;SDS011;8536;52.150;11.572;2022-08-30T11:22:13;0.85;;;0.85;;
16839;SDS011;8536;52.150;11.572;2022-08-30T11:25:03;1.60;;;1.10;;
16839;SDS011;8536;52.150;11.572;2022-08-30T11:33:05;0.85;;;0.80;;
16839;SDS011;8536;52.150;11.572;2022-08-30T11:35:51;1.13;;;0.80;;
16839;SDS011;8536;52.150;11.572;2022-08-30T11:54:48;1.55;;;0.80;;
16839;SDS011;8536;52.150;11.572;2022-08-30T12:00:09;0.82;;;0.82;;
16839;SDS011;8536;52.150;11.572;2022-08-30T12:02:51;0.98;;;0.88;;
16839;SDS011;8536;52.150;11.572;2022-08-30T12:08:50;0.70;;;0.70;;
16839;SDS011;8536;52.150;11.572;2022-08-30T12:16:07;1.25;;;0.80;;
16839;SDS011;8536;52.150;11.572;2022-08-30T12:21:11;2.97;;;0.88;;
16839;SDS011;8536;52.150;11.572;2022-08-30T12:23:45;0.60;;;0.60;;
16839;SDS011;8536;52.150;11.572;2022-08-30T12:26:17;0.82;;;0.70;;
16839;SDS011;8536;52.150;11.572;2022-08-30T12:29:36;0.80;;;0.70;;
16839;SDS011;8536;52.150;11.572;2022-08-30T12:31:42;0.88;;;0.88;;
16839;SDS011;8536;52.150;11.572;2022-08-30T12:34:24;1.45;;;0.80;;
16839;SDS011;8536;52.150;11.572;2022-08-30T12:36:55;0.75;;;0.75;;
16839;SDS011;8536;52.150;11.572;2022-08-30T12:39:44;0.98;;;0.60;;
16839;SDS011;8536;52.150;11.572;2022-08-30T12:42:19;0.60;;;0.60;;
16839;SDS011;8536;52.150;11.572;2022-08-30T12:44:59;0.63;;;0.63;;
16839;SDS011;8536;52.150;11.572;2022-08-30T12:47:44;1.38;;;0.80;;
16839;SDS011;8536;52.150;11.572;2022-08-30T12:50:21;1.05;;;0.90;;
16839;SDS011;8536;52.150;11.572;2022-08-30T12:53:01;1.13;;;1.02;;
16839;SDS011;8536;52.150;11.572;2022-08-30T12:55:36;1.23;;;0.80;;
16839;SDS011;8536;52.150;11.572;2022-08-30T12:58:15;0.95;;;0.65;;
16839;SDS011;8536;52.150;11.572;2022-08-30T13:00:44;1.15;;;0.90;;
16839;SDS011;8536;52.150;11.572;2022-08-30T13:06:03;0.75;;;0.70;;
16839;SDS011;8536;52.150;11.572;2022-08-30T13:08:47;1.00;;;0.75;;
16839;SDS011;8536;52.150;11.572;2022-08-30T13:13:50;0.70;;;0.65;;
16839;SDS011;8536;52.150;11.572;2022-08-30T13:16:23;0.98;;;0.77;;
16839;SDS011;8536;52.150;11.572;2022-08-30T13:19:14;1.10;;;0.70;;
16839;SDS011;8536;52.150;11.572;2022-08-30T13:21:57;0.60;;;0.60;;
16839;SDS011;8536;52.150;11.572;2022-08-30T13:24:25;1.10;;;0.85;;
16839;SDS011;8536;52.150;11.572;2022-08-30T13:26:53;0.80;;;0.65;;
16839;SDS011;8536;52.150;11.572;2022-08-30T13:29:23;0.98;;;0.75;;
16839;SDS011;8536;52.150;11.572;2022-08-30T13:31:52;0.70;;;0.70;;
16839;SDS011;8536;52.150;11.572;2022-08-30T13:34:19;0.60;;;0.60;;
16839;SDS011;8536;52.150;11.572;2022-08-30T13:36:55;4.05;;;0.80;;
16839;SDS011;8536;52.150;11.572;2022-08-30T13:39:23;0.90;;;0.80;;
16839;SDS011;8536;52.150;11.572;2022-08-30T13:41:50;0.85;;;0.70;;
16839;SDS011;8536;52.150;11.572;2022-08-30T13:44:17;0.93;;;0.85;;
16839;SDS011;8536;52.150;11.572;2022-08-30T13:46:46;1.08;;;0.65;;
16839;SDS011;8536;52.150;11.572;2022-08-30T13:49:24;0.85;;;0.68;;
16839;SDS011;8536;52.150;11.572;2022-08-30T13:52:13;1.67;;;0.80;;
16839;SDS011;8536;52.150;11.572;2022-08-30T13:54:51;0.90;;;0.80;;
16839;SDS011;8536;52.150;11.572;2022-08-30T13:57:19;0.82;;;0.68;;
16839;SDS011;8536;52.150;11.572;2022-08-30T14:00:10;0.75;;;0.75;;
16839;SDS011;8536;52.150;11.572;2022-08-30T14:02:40;1.02;;;0.70;;
16839;SDS011;8536;52.150;11.572;2022-08-30T14:05:14;0.73;;;0.73;;
16839;SDS011;8536;52.150;11.572;2022-08-30T14:08:01;0.93;;;0.80;;
16839;SDS011;8536;52.150;11.572;2022-08-30T14:10:29;1.23;;;1.00;;
16839;SDS011;8536;52.150;11.572;2022-08-30T14:12:58;0.98;;;0.80;;
16839;SDS011;8536;52.150;11.572;2022-08-30T14:15:35;1.10;;;0.93;;
16839;SDS011;8536;52.150;11.572;2022-08-30T14:18:04;0.85;;;0.77;;
16839;SDS011;8536;52.150;11.572;2022-08-30T14:20:31;1.05;;;0.70;;
16839;SDS011;8536;52.150;11.572;2022-08-30T14:23:04;1.17;;;0.80;;
16839;SDS011;8536;52.150;11.572;2022-08-30T14:25:35;1.30;;;0.90;;
16839;SDS011;8536;52.150;11.572;2022-08-30T14:28:02;1.50;;;0.95;;
16839;SDS011;8536;52.150;11.572;2022-08-30T14:30:29;1.85;;;0.93;;
16839;SDS011;8536;52.150;11.572;2022-08-30T14:32:58;1.75;;;0.73;;
16839;SDS011;8536;52.150;11.572;2022-08-30T14:35:25;0.60;;;0.60;;
16839;SDS011;8536;52.150;11.572;2022-08-30T14:37:52;0.80;;;0.80;;
16839;SDS011;8536;52.150;11.572;2022-08-30T14:40:19;1.23;;;0.80;;
16839;SDS011;8536;52.150;11.572;2022-08-30T14:42:46;0.75;;;0.68;;
16839;SDS011;8536;52.150;11.572;2022-08-30T14:45:12;0.98;;;0.85;;
16839;SDS011;8536;52.150;11.572;2022-08-30T14:47:39;1.25;;;0.60;;
16839;SDS011;8536;52.150;11.572;2022-08-30T14:50:06;0.70;;;0.70;;
16839;SDS011;8536;52.150;11.572;2022-08-30T14:52:33;0.68;;;0.68;;
16839;SDS011;8536;52.150;11.572;2022-08-30T14:55:00;2.13;;;0.73;;
16839;SDS011;8536;52.150;11.572;2022-08-30T14:57:34;0.88;;;0.70;;
16839;SDS011;8536;52.150;11.572;2022-08-30T15:00:04;1.55;;;0.80;;
16839;SDS011;8536;52.150;11.572;2022-08-30T15:02:32;0.90;;;0.80;;
16839;SDS011;8536;52.150;11.572;2022-08-30T15:05:00;2.45;;;0.80;;
16839;SDS011;8536;52.150;11.572;2022-08-30T15:07:26;0.85;;;0.85;;
16839;SDS011;8536;52.150;11.572;2022-08-30T15:09:53;0.80;;;0.80;;
16839;SDS011;8536;52.150;11.572;2022-08-30T15:12:20;0.65;;;0.65;;
16839;SDS011;8536;52.150;11.572;2022-08-30T15:14:47;0.93;;;0.82;;
16839;SDS011;8536;52.150;11.572;2022-08-30T15:17:13;1.23;;;0.90;;
16839;SDS011;8536;52.150;11.572;2022-08-30T15:19:43;0.70;;;0.70;;
16839;SDS011;8536;52.150;11.572;2022-08-30T15:22:10;1.63;;;0.80;;
16839;SDS011;8536;52.150;11.572;2022-08-30T15:24:40;0.57;;;0.57;;
16839;SDS011;8536;52.150;11.572;2022-08-30T15:27:06;1.60;;;0.77;;
16839;SDS011;8536;52.150;11.572;2022-08-30T15:29:33;2.83;;;0.90;;
16839;SDS011;8536;52.150;11.572;2022-08-30T15:32:00;1.40;;;0.68;;
16839;SDS011;8536;52.150;11.572;2022-08-30T15:34:30;1.50;;;0.90;;
16839;SDS011;8536;52.150;11.572;2022-08-30T15:36:57;1.02;;;0.93;;
16839;SDS011;8536;52.150;11.572;2022-08-30T15:39:24;0.60;;;0.60;;
16839;SDS011;8536;52.150;11.572;2022-08-30T15:41:52;0.70;;;0.70;;
16839;SDS011;8536;52.150;11.572;2022-08-30T15:44:25;1.00;;;0.80;;
16839;SDS011;8536;52.150;11.572;2022-08-30T15:46:52;1.63;;;0.93;;
16839;SDS011;8536;52.150;11.572;2022-08-30T15:49:21;2.88;;;1.27;;
16839;SDS011;8536;52.150;11.572;2022-08-30T15:51:49;8.35;;;1.50;;
16839;SDS011;8536;52.150;11.572;2022-08-30T15:54:20;2.53;;;0.88;;
16839;SDS011;8536;52.150;11.572;2022-08-30T15:56:48;3.38;;;1.00;;
16839;SDS011;8536;52.150;11.572;2022-08-30T15:59:15;3.75;;;0.75;;
16839;SDS011;8536;52.150;11.572;2022-08-30T16:01:43;4.25;;;1.13;;
16839;SDS011;8536;52.150;11.572;2022-08-30T16:04:13;3.88;;;1.10;;
16839;SDS011;8536;52.150;11.572;2022-08-30T16:06:39;3.22;;;0.70;;
16839;SDS011;8536;52.150;11.572;2022-08-30T16:09:07;0.98;;;0.50;;
16839;SDS011;8536;52.150;11.572;2022-08-30T16:11:35;1.15;;;0.63;;
16839;SDS011;8536;52.150;11.572;2022-08-30T16:14:02;0.50;;;0.40;;
16839;SDS011;8536;52.150;11.572;2022-08-30T16:16:29;0.60;;;0.50;;
16839;SDS011;8536;52.150;11.572;2022-08-30T16:18:56;0.50;;;0.50;;
16839;SDS011;8536;52.150;11.572;2022-08-30T16:21:28;0.93;;;0.57;;
16839;SDS011;8536;52.150;11.572;2022-08-30T16:23:56;0.57;;;0.57;;
16839;SDS011;8536;52.150;11.572;2022-08-30T16:26:25;1.25;;;0.80;;
16839;SDS011;8536;52.150;11.572;2022-08-30T16:28:52;0.65;;;0.43;;